sensor_id;sensor_type;location;lat;lon;timestamp;P1;durP1;ratioP1;P2;durP2;ratioP2
45962;SDS011;31669;49.892;20.818;2022-10-26T00:04:15;3.60;;;1.63;;
45962;SDS011;31669;49.892;20.818;2022-10-26T00:09:15;3.43;;;1.57;;
45962;SDS011;31669;49.892;20.818;2022-10-26T00:14:16;3.40;;;1.77;;
45962;SDS011;31669;49.892;20.818;2022-10-26T00:19:16;2.07;;;1.83;;
45962;SDS011;31669;49.892;20.818;2022-10-26T00:24:17;2.70;;;1.70;;
45962;SDS011;31669;49.892;20.818;2022-10-26T00:29:19;3.50;;;2.40;;
45962;SDS011;31669;49.892;20.818;2022-10-26T00:34:20;8.85;;;2.63;;
45962;SDS011;31669;49.892;20.818;2022-10-26T00:39:21;3.37;;;2.13;;
45962;SDS011;31669;49.892;20.818;2022-10-26T00:49:41;4.18;;;1.90;;
45962;SDS011;31669;49.892;20.818;2022-10-26T00:54:42;2.75;;;1.52;;
45962;SDS011;31669;49.892;20.818;2022-10-26T00:59:43;1.70;;;1.35;;
45962;SDS011;31669;49.892;20.818;2022-10-26T01:04:45;4.90;;;1.80;;
45962;SDS011;31669;49.892;20.818;2022-10-26T01:09:46;3.25;;;1.90;;
45962;SDS011;31669;49.892;20.818;2022-10-26T01:14:46;2.77;;;1.60;;
45962;SDS011;31669;49.892;20.818;2022-10-26T01:30:35;3.15;;;1.98;;
45962;SDS011;31669;49.892;20.818;2022-10-26T01:46:16;3.38;;;2.33;;
45962;SDS011;31669;49.892;20.818;2022-10-26T01:51:17;4.72;;;1.63;;
45962;SDS011;31669;49.892;20.818;2022-10-26T02:06:44;4.57;;;2.78;;
45962;SDS011;31669;49.892;20.818;2022-10-26T02:11:50;3.00;;;1.80;;
45962;SDS011;31669;49.892;20.818;2022-10-26T02:21:55;6.13;;;2.43;;
45962;SDS011;31669;49.892;20.818;2022-10-26T02:26:59;2.95;;;2.10;;
45962;SDS011;31669;49.892;20.818;2022-10-26T02:32:00;4.25;;;1.85;;
45962;SDS011;31669;49.892;20.818;2022-10-26T02:37:01;2.60;;;1.80;;
45962;SDS011;31669;49.892;20.818;2022-10-26T02:42:04;5.07;;;2.85;;
45962;SDS011;31669;49.892;20.818;2022-10-26T02:47:05;4.90;;;2.47;;
45962;SDS011;31669;49.892;20.818;2022-10-26T02:52:09;2.27;;;1.50;;
45962;SDS011;31669;49.892;20.818;2022-10-26T02:57:18;3.25;;;1.48;;
45962;SDS011;31669;49.892;20.818;2022-10-26T03:02:20;1.85;;;1.50;;
45962;SDS011;31669;49.892;20.818;2022-10-26T03:12:22;2.40;;;1.65;;
45962;SDS011;31669;49.892;20.818;2022-10-26T03:17:22;4.10;;;1.80;;
45962;SDS011;31669;49.892;20.818;2022-10-26T03:22:23;5.80;;;2.33;;
45962;SDS011;31669;49.892;20.818;2022-10-26T03:27:23;2.73;;;2.07;;
45962;SDS011;31669;49.892;20.818;2022-10-26T03:32:24;3.37;;;1.50;;
45962;SDS011;31669;49.892;20.818;2022-10-26T03:37:24;3.47;;;1.93;;
45962;SDS011;31669;49.892;20.818;2022-10-26T03:42:25;1.10;;;1.07;;
45962;SDS011;31669;49.892;20.818;2022-10-26T03:47:27;3.72;;;1.38;;
45962;SDS011;31669;49.892;20.818;2022-10-26T03:52:27;8.70;;;2.43;;
45962;SDS011;31669;49.892;20.818;2022-10-26T03:57:28;3.10;;;1.73;;
45962;SDS011;31669;49.892;20.818;2022-10-26T04:02:28;2.27;;;1.43;;
45962;SDS011;31669;49.892;20.818;2022-10-26T04:07:29;1.70;;;1.60;;
45962;SDS011;31669;49.892;20.818;2022-10-26T04:12:30;4.53;;;2.27;;
45962;SDS011;31669;49.892;20.818;2022-10-26T04:17:30;8.43;;;2.23;;
45962;SDS011;31669;49.892;20.818;2022-10-26T04:22:31;3.70;;;1.87;;
45962;SDS011;31669;49.892;20.818;2022-10-26T04:27:31;6.83;;;2.37;;
45962;SDS011;31669;49.892;20.818;2022-10-26T04:32:32;7.03;;;1.77;;
45962;SDS011;31669;49.892;20.818;2022-10-26T04:37:32;3.10;;;1.67;;
45962;SDS011;31669;49.892;20.818;2022-10-26T04:42:40;2.93;;;1.83;;
45962;SDS011;31669;49.892;20.818;2022-10-26T04:47:41;4.18;;;2.40;;
45962;SDS011;31669;49.892;20.818;2022-10-26T04:52:41;3.92;;;2.60;;
45962;SDS011;31669;49.892;20.818;2022-10-26T04:57:43;4.27;;;3.00;;
45962;SDS011;31669;49.892;20.818;2022-10-26T05:02:43;2.33;;;1.90;;
45962;SDS011;31669;49.892;20.818;2022-10-26T05:07:51;3.43;;;2.10;;
45962;SDS011;31669;49.892;20.818;2022-10-26T05:12:52;2.70;;;1.75;;
45962;SDS011;31669;49.892;20.818;2022-10-26T05:17:57;3.15;;;2.20;;
45962;SDS011;31669;49.892;20.818;2022-10-26T05:22:59;3.10;;;2.40;;
45962;SDS011;31669;49.892;20.818;2022-10-26T05:28:01;4.80;;;2.45;;
45962;SDS011;31669;49.892;20.818;2022-10-26T05:33:02;2.95;;;1.83;;
45962;SDS011;31669;49.892;20.818;2022-10-26T05:38:07;6.25;;;2.13;;
45962;SDS011;31669;49.892;20.818;2022-10-26T05:43:07;5.68;;;2.85;;
45962;SDS011;31669;49.892;20.818;2022-10-26T05:53:09;3.22;;;2.15;;
45962;SDS011;31669;49.892;20.818;2022-10-26T05:58:11;5.67;;;2.77;;
45962;SDS011;31669;49.892;20.818;2022-10-26T06:03:18;5.60;;;2.22;;
45962;SDS011;31669;49.892;20.818;2022-10-26T06:08:20;5.65;;;2.50;;
45962;SDS011;31669;49.892;20.818;2022-10-26T06:13:22;3.28;;;2.55;;
45962;SDS011;31669;49.892;20.818;2022-10-26T06:18:25;4.43;;;2.67;;
45962;SDS011;31669;49.892;20.818;2022-10-26T06:33:28;3.53;;;2.33;;
45962;SDS011;31669;49.892;20.818;2022-10-26T06:38:29;6.83;;;2.83;;
45962;SDS011;31669;49.892;20.818;2022-10-26T06:43:33;6.40;;;3.40;;
45962;SDS011;31669;49.892;20.818;2022-10-26T06:48:46;2.97;;;2.50;;
45962;SDS011;31669;49.892;20.818;2022-10-26T06:58:59;5.57;;;3.60;;
45962;SDS011;31669;49.892;20.818;2022-10-26T07:04:04;4.50;;;3.33;;
45962;SDS011;31669;49.892;20.818;2022-10-26T07:09:05;5.73;;;3.57;;
45962;SDS011;31669;49.892;20.818;2022-10-26T07:14:05;7.87;;;3.70;;
45962;SDS011;31669;49.892;20.818;2022-10-26T07:19:06;6.27;;;3.00;;
45962;SDS011;31669;49.892;20.818;2022-10-26T07:24:07;4.00;;;2.80;;
45962;SDS011;31669;49.892;20.818;2022-10-26T07:29:07;3.97;;;2.93;;
45962;SDS011;31669;49.892;20.818;2022-10-26T07:34:08;4.37;;;3.10;;
45962;SDS011;31669;49.892;20.818;2022-10-26T07:39:09;5.27;;;3.20;;
45962;SDS011;31669;49.892;20.818;2022-10-26T07:44:09;4.27;;;3.00;;
45962;SDS011;31669;49.892;20.818;2022-10-26T07:49:10;3.77;;;2.97;;
45962;SDS011;31669;49.892;20.818;2022-10-26T07:54:10;3.83;;;2.83;;
45962;SDS011;31669;49.892;20.818;2022-10-26T07:59:11;4.30;;;2.83;;
45962;SDS011;31669;49.892;20.818;2022-10-26T08:04:12;4.85;;;1.98;;
45962;SDS011;31669;49.892;20.818;2022-10-26T08:09:13;3.28;;;2.28;;
45962;SDS011;31669;49.892;20.818;2022-10-26T08:14:15;2.10;;;1.80;;
45962;SDS011;31669;49.892;20.818;2022-10-26T08:19:17;2.92;;;1.77;;
45962;SDS011;31669;49.892;20.818;2022-10-26T08:24:17;4.20;;;2.05;;
45962;SDS011;31669;49.892;20.818;2022-10-26T08:29:18;3.20;;;1.20;;
45962;SDS011;31669;49.892;20.818;2022-10-26T08:34:19;8.77;;;1.57;;
45962;SDS011;31669;49.892;20.818;2022-10-26T08:39:19;1.23;;;0.73;;
45962;SDS011;31669;49.892;20.818;2022-10-26T08:54:56;3.80;;;0.85;;
45962;SDS011;31669;49.892;20.818;2022-10-26T08:59:59;2.25;;;1.38;;
45962;SDS011;31669;49.892;20.818;2022-10-26T09:05:00;1.27;;;1.08;;
45962;SDS011;31669;49.892;20.818;2022-10-26T09:20:29;0.83;;;0.63;;
45962;SDS011;31669;49.892;20.818;2022-10-26T09:25:41;10.77;;;2.03;;
45962;SDS011;31669;49.892;20.818;2022-10-26T09:30:46;1.45;;;1.08;;
45962;SDS011;31669;49.892;20.818;2022-10-26T09:41:10;1.70;;;0.82;;
45962;SDS011;31669;49.892;20.818;2022-10-26T09:46:16;2.97;;;1.45;;
45962;SDS011;31669;49.892;20.818;2022-10-26T09:51:17;1.48;;;0.80;;
45962;SDS011;31669;49.892;20.818;2022-10-26T09:56:18;2.10;;;1.17;;
45962;SDS011;31669;49.892;20.818;2022-10-26T10:01:32;1.23;;;0.83;;
45962;SDS011;31669;49.892;20.818;2022-10-26T10:06:33;2.03;;;0.55;;
45962;SDS011;31669;49.892;20.818;2022-10-26T10:12:15;0.47;;;0.40;;
45962;SDS011;31669;49.892;20.818;2022-10-26T10:17:03;0.80;;;0.73;;
45962;SDS011;31669;49.892;20.818;2022-10-26T10:32:18;2.58;;;1.42;;
45962;SDS011;31669;49.892;20.818;2022-10-26T10:37:26;0.00;;;0.00;;
45962;SDS011;31669;49.892;20.818;2022-10-26T10:42:35;1.58;;;1.15;;
45962;SDS011;31669;49.892;20.818;2022-10-26T10:47:36;1.63;;;0.75;;
45962;SDS011;31669;49.892;20.818;2022-10-26T10:52:38;5.25;;;0.75;;
45962;SDS011;31669;49.892;20.818;2022-10-26T11:03:13;1.20;;;0.70;;
45962;SDS011;31669;49.892;20.818;2022-10-26T11:08:19;0.57;;;0.50;;
45962;SDS011;31669;49.892;20.818;2022-10-26T11:13:21;0.70;;;0.57;;
45962;SDS011;31669;49.892;20.818;2022-10-26T11:19:06;2.08;;;0.85;;
45962;SDS011;31669;49.892;20.818;2022-10-26T11:24:48;0.93;;;0.93;;
45962;SDS011;31669;49.892;20.818;2022-10-26T11:29:39;0.80;;;0.80;;
45962;SDS011;31669;49.892;20.818;2022-10-26T11:34:39;0.47;;;0.47;;
45962;SDS011;31669;49.892;20.818;2022-10-26T11:39:52;2.47;;;1.20;;
45962;SDS011;31669;49.892;20.818;2022-10-26T11:44:57;2.22;;;1.38;;
45962;SDS011;31669;49.892;20.818;2022-10-26T11:55:11;6.07;;;1.58;;
45962;SDS011;31669;49.892;20.818;2022-10-26T12:00:16;2.13;;;1.43;;
45962;SDS011;31669;49.892;20.818;2022-10-26T12:05:41;2.50;;;1.15;;
45962;SDS011;31669;49.892;20.818;2022-10-26T12:10:47;3.58;;;1.40;;
45962;SDS011;31669;49.892;20.818;2022-10-26T12:15:54;2.25;;;1.02;;
45962;SDS011;31669;49.892;20.818;2022-10-26T12:20:59;1.98;;;1.02;;
45962;SDS011;31669;49.892;20.818;2022-10-26T12:41:53;0.50;;;0.50;;
45962;SDS011;31669;49.892;20.818;2022-10-26T12:46:54;0.30;;;0.30;;
45962;SDS011;31669;49.892;20.818;2022-10-26T12:51:55;0.73;;;0.40;;
45962;SDS011;31669;49.892;20.818;2022-10-26T12:57:04;3.85;;;0.90;;
45962;SDS011;31669;49.892;20.818;2022-10-26T13:07:32;1.85;;;0.68;;
45962;SDS011;31669;49.892;20.818;2022-10-26T13:12:52;1.17;;;0.68;;
45962;SDS011;31669;49.892;20.818;2022-10-26T13:22:56;5.93;;;1.67;;
45962;SDS011;31669;49.892;20.818;2022-10-26T13:33:01;1.83;;;1.58;;
45962;SDS011;31669;49.892;20.818;2022-10-26T13:38:05;10.70;;;2.30;;
45962;SDS011;31669;49.892;20.818;2022-10-26T13:43:10;1.48;;;1.17;;
45962;SDS011;31669;49.892;20.818;2022-10-26T13:48:16;3.33;;;1.40;;
45962;SDS011;31669;49.892;20.818;2022-10-26T13:53:20;3.17;;;1.15;;
45962;SDS011;31669;49.892;20.818;2022-10-26T13:58:40;4.32;;;1.75;;
45962;SDS011;31669;49.892;20.818;2022-10-26T14:03:43;2.58;;;1.13;;
45962;SDS011;31669;49.892;20.818;2022-10-26T14:08:44;1.38;;;1.05;;
45962;SDS011;31669;49.892;20.818;2022-10-26T14:13:47;0.57;;;0.57;;
45962;SDS011;31669;49.892;20.818;2022-10-26T14:18:48;4.78;;;1.60;;
45962;SDS011;31669;49.892;20.818;2022-10-26T14:28:50;3.33;;;1.10;;
45962;SDS011;31669;49.892;20.818;2022-10-26T14:33:52;4.20;;;1.50;;
45962;SDS011;31669;49.892;20.818;2022-10-26T14:43:54;1.17;;;0.93;;
45962;SDS011;31669;49.892;20.818;2022-10-26T14:48:55;1.10;;;0.68;;
45962;SDS011;31669;49.892;20.818;2022-10-26T14:58:57;3.97;;;1.20;;
45962;SDS011;31669;49.892;20.818;2022-10-26T15:04:05;1.48;;;0.82;;
45962;SDS011;31669;49.892;20.818;2022-10-26T15:09:06;1.65;;;0.65;;
45962;SDS011;31669;49.892;20.818;2022-10-26T15:14:26;5.65;;;1.40;;
45962;SDS011;31669;49.892;20.818;2022-10-26T15:19:27;4.13;;;1.37;;
45962;SDS011;31669;49.892;20.818;2022-10-26T15:24:29;3.20;;;1.47;;
45962;SDS011;31669;49.892;20.818;2022-10-26T15:34:36;4.82;;;2.20;;
45962;SDS011;31669;49.892;20.818;2022-10-26T15:39:37;9.77;;;4.87;;
45962;SDS011;31669;49.892;20.818;2022-10-26T15:44:37;4.90;;;3.00;;
45962;SDS011;31669;49.892;20.818;2022-10-26T15:49:38;6.17;;;2.50;;
45962;SDS011;31669;49.892;20.818;2022-10-26T15:54:41;4.00;;;2.03;;
45962;SDS011;31669;49.892;20.818;2022-10-26T15:59:42;1.27;;;1.17;;
45962;SDS011;31669;49.892;20.818;2022-10-26T16:04:43;2.60;;;1.60;;
45962;SDS011;31669;49.892;20.818;2022-10-26T16:09:43;35.37;;;10.20;;
45962;SDS011;31669;49.892;20.818;2022-10-26T16:14:44;19.47;;;9.60;;
45962;SDS011;31669;49.892;20.818;2022-10-26T16:19:45;36.90;;;14.93;;
45962;SDS011;31669;49.892;20.818;2022-10-26T16:24:46;16.20;;;7.72;;
45962;SDS011;31669;49.892;20.818;2022-10-26T16:29:47;23.03;;;8.40;;
45962;SDS011;31669;49.892;20.818;2022-10-26T16:34:47;26.63;;;11.20;;
45962;SDS011;31669;49.892;20.818;2022-10-26T16:39:48;14.27;;;5.73;;
45962;SDS011;31669;49.892;20.818;2022-10-26T16:44:49;29.43;;;15.60;;
45962;SDS011;31669;49.892;20.818;2022-10-26T16:49:49;7.00;;;4.17;;
45962;SDS011;31669;49.892;20.818;2022-10-26T16:54:50;5.07;;;2.73;;
45962;SDS011;31669;49.892;20.818;2022-10-26T16:59:50;5.20;;;2.10;;
45962;SDS011;31669;49.892;20.818;2022-10-26T17:04:51;6.77;;;3.20;;
45962;SDS011;31669;49.892;20.818;2022-10-26T17:09:52;2.77;;;2.47;;
45962;SDS011;31669;49.892;20.818;2022-10-26T17:14:52;4.87;;;3.03;;
45962;SDS011;31669;49.892;20.818;2022-10-26T17:19:53;3.87;;;3.33;;
45962;SDS011;31669;49.892;20.818;2022-10-26T17:24:54;5.10;;;3.57;;
45962;SDS011;31669;49.892;20.818;2022-10-26T17:29:54;5.00;;;3.58;;
45962;SDS011;31669;49.892;20.818;2022-10-26T17:34:55;5.63;;;3.53;;
45962;SDS011;31669;49.892;20.818;2022-10-26T17:39:55;5.70;;;3.33;;
45962;SDS011;31669;49.892;20.818;2022-10-26T17:44:57;7.43;;;3.67;;
45962;SDS011;31669;49.892;20.818;2022-10-26T17:49:57;6.85;;;4.15;;
45962;SDS011;31669;49.892;20.818;2022-10-26T17:54:58;7.03;;;4.30;;
45962;SDS011;31669;49.892;20.818;2022-10-26T17:59:59;5.70;;;4.30;;
45962;SDS011;31669;49.892;20.818;2022-10-26T18:04:59;6.13;;;3.57;;
45962;SDS011;31669;49.892;20.818;2022-10-26T18:10:00;6.77;;;3.73;;
45962;SDS011;31669;49.892;20.818;2022-10-26T18:15:01;6.20;;;3.80;;
45962;SDS011;31669;49.892;20.818;2022-10-26T18:20:01;9.77;;;5.37;;
45962;SDS011;31669;49.892;20.818;2022-10-26T18:25:02;4.70;;;3.27;;
45962;SDS011;31669;49.892;20.818;2022-10-26T18:30:03;9.37;;;3.60;;
45962;SDS011;31669;49.892;20.818;2022-10-26T18:35:03;12.93;;;4.80;;
45962;SDS011;31669;49.892;20.818;2022-10-26T18:40:04;6.60;;;3.45;;
45962;SDS011;31669;49.892;20.818;2022-10-26T18:45:05;8.02;;;4.45;;
45962;SDS011;31669;49.892;20.818;2022-10-26T18:50:06;7.30;;;3.80;;
45962;SDS011;31669;49.892;20.818;2022-10-26T18:55:07;8.60;;;4.27;;
45962;SDS011;31669;49.892;20.818;2022-10-26T19:00:08;8.35;;;4.28;;
45962;SDS011;31669;49.892;20.818;2022-10-26T19:05:09;6.97;;;4.10;;
45962;SDS011;31669;49.892;20.818;2022-10-26T19:10:09;6.28;;;3.78;;
45962;SDS011;31669;49.892;20.818;2022-10-26T19:15:10;8.73;;;4.63;;
45962;SDS011;31669;49.892;20.818;2022-10-26T19:20:11;12.53;;;5.70;;
45962;SDS011;31669;49.892;20.818;2022-10-26T19:25:12;5.07;;;3.67;;
45962;SDS011;31669;49.892;20.818;2022-10-26T19:30:12;12.67;;;5.80;;
45962;SDS011;31669;49.892;20.818;2022-10-26T19:35:14;10.30;;;4.15;;
45962;SDS011;31669;49.892;20.818;2022-10-26T19:40:15;17.50;;;4.10;;
45962;SDS011;31669;49.892;20.818;2022-10-26T19:45:15;5.23;;;3.53;;
45962;SDS011;31669;49.892;20.818;2022-10-26T19:50:16;5.67;;;3.63;;
45962;SDS011;31669;49.892;20.818;2022-10-26T19:55:17;4.30;;;3.27;;
45962;SDS011;31669;49.892;20.818;2022-10-26T20:00:17;5.67;;;3.30;;
45962;SDS011;31669;49.892;20.818;2022-10-26T20:05:18;9.05;;;4.45;;
45962;SDS011;31669;49.892;20.818;2022-10-26T20:10:19;6.40;;;4.37;;
45962;SDS011;31669;49.892;20.818;2022-10-26T20:15:19;8.33;;;4.53;;
45962;SDS011;31669;49.892;20.818;2022-10-26T20:20:20;8.63;;;4.13;;
45962;SDS011;31669;49.892;20.818;2022-10-26T20:25:20;6.73;;;4.27;;
45962;SDS011;31669;49.892;20.818;2022-10-26T20:30:21;9.70;;;4.57;;
45962;SDS011;31669;49.892;20.818;2022-10-26T20:35:22;8.43;;;4.43;;
45962;SDS011;31669;49.892;20.818;2022-10-26T20:40:24;7.25;;;3.88;;
45962;SDS011;31669;49.892;20.818;2022-10-26T20:50:27;7.03;;;3.80;;
45962;SDS011;31669;49.892;20.818;2022-10-26T20:55:49;7.63;;;4.22;;
45962;SDS011;31669;49.892;20.818;2022-10-26T21:01:00;9.93;;;4.63;;
45962;SDS011;31669;49.892;20.818;2022-10-26T21:06:01;6.10;;;3.63;;
45962;SDS011;31669;49.892;20.818;2022-10-26T21:11:01;6.47;;;3.80;;
45962;SDS011;31669;49.892;20.818;2022-10-26T21:16:02;6.53;;;3.33;;
45962;SDS011;31669;49.892;20.818;2022-10-26T21:21:03;9.93;;;3.72;;
45962;SDS011;31669;49.892;20.818;2022-10-26T21:26:04;6.47;;;3.87;;
45962;SDS011;31669;49.892;20.818;2022-10-26T21:31:05;7.97;;;4.50;;
45962;SDS011;31669;49.892;20.818;2022-10-26T21:36:07;8.50;;;4.22;;
45962;SDS011;31669;49.892;20.818;2022-10-26T21:41:12;9.25;;;4.38;;
45962;SDS011;31669;49.892;20.818;2022-10-26T21:46:13;10.80;;;3.97;;
45962;SDS011;31669;49.892;20.818;2022-10-26T21:56:16;7.57;;;4.57;;
45962;SDS011;31669;49.892;20.818;2022-10-26T22:01:18;9.10;;;3.95;;
45962;SDS011;31669;49.892;20.818;2022-10-26T22:06:19;7.63;;;3.13;;
45962;SDS011;31669;49.892;20.818;2022-10-26T22:11:21;5.72;;;3.40;;
45962;SDS011;31669;49.892;20.818;2022-10-26T22:16:26;6.38;;;3.83;;
45962;SDS011;31669;49.892;20.818;2022-10-26T22:21:30;5.50;;;3.40;;
45962;SDS011;31669;49.892;20.818;2022-10-26T22:26:32;8.68;;;3.35;;
45962;SDS011;31669;49.892;20.818;2022-10-26T22:31:34;6.03;;;3.03;;
45962;SDS011;31669;49.892;20.818;2022-10-26T22:36:36;7.25;;;3.78;;
45962;SDS011;31669;49.892;20.818;2022-10-26T22:41:36;5.17;;;3.27;;
45962;SDS011;31669;49.892;20.818;2022-10-26T22:46:37;5.53;;;3.03;;
45962;SDS011;31669;49.892;20.818;2022-10-26T22:51:38;6.20;;;3.13;;
45962;SDS011;31669;49.892;20.818;2022-10-26T22:56:38;7.00;;;4.03;;
45962;SDS011;31669;49.892;20.818;2022-10-26T23:01:39;8.47;;;2.93;;
45962;SDS011;31669;49.892;20.818;2022-10-26T23:06:40;8.38;;;3.53;;
45962;SDS011;31669;49.892;20.818;2022-10-26T23:11:41;4.73;;;2.33;;
45962;SDS011;31669;49.892;20.818;2022-10-26T23:16:42;7.40;;;3.70;;
45962;SDS011;31669;49.892;20.818;2022-10-26T23:21:42;8.83;;;3.73;;
45962;SDS011;31669;49.892;20.818;2022-10-26T23:26:43;7.33;;;3.70;;
45962;SDS011;31669;49.892;20.818;2022-10-26T23:31:43;5.87;;;3.67;;
45962;SDS011;31669;49.892;20.818;2022-10-26T23:36:44;5.90;;;3.50;;
45962;SDS011;31669;49.892;20.818;2022-10-26T23:41:44;7.03;;;4.03;;
45962;SDS011;31669;49.892;20.818;2022-10-26T23:46:45;3.73;;;2.83;;
45962;SDS011;31669;49.892;20.818;2022-10-26T23:51:46;5.20;;;3.23;;
45962;SDS011;31669;49.892;20.818;2022-10-26T23:56:46;5.10;;;3.33;;
